sensor_id;sensor_type;location;lat;lon;timestamp;temperature;humidity
10911;DHT22;5508;49.150;11.030;2023-03-01T00:02:01;-5.70;99.90
10911;DHT22;5508;49.150;11.030;2023-03-01T00:05:02;-5.80;99.90
10911;DHT22;5508;49.150;11.030;2023-03-01T00:08:02;-5.80;99.90
10911;DHT22;5508;49.150;11.030;2023-03-01T00:14:10;-6.00;99.90
10911;DHT22;5508;49.150;11.030;2023-03-01T00:17:11;-6.00;99.90
10911;DHT22;5508;49.150;11.030;2023-03-01T00:20:11;-6.00;99.90
10911;DHT22;5508;49.150;11.030;2023-03-01T00:23:12;-6.00;99.90
10911;DHT22;5508;49.150;11.030;2023-03-01T00:26:13;-6.00;99.90
10911;DHT22;5508;49.150;11.030;2023-03-01T00:29:14;-5.90;99.90
10911;DHT22;5508;49.150;11.030;2023-03-01T00:32:14;-5.80;99.90
10911;DHT22;5508;49.150;11.030;2023-03-01T00:35:15;-5.60;99.90
10911;DHT22;5508;49.150;11.030;2023-03-01T00:38:16;-5.50;99.90
10911;DHT22;5508;49.150;11.030;2023-03-01T00:41:18;-5.30;99.90
10911;DHT22;5508;49.150;11.030;2023-03-01T00:44:19;-5.30;99.90
10911;DHT22;5508;49.150;11.030;2023-03-01T00:47:19;-5.20;99.90
10911;DHT22;5508;49.150;11.030;2023-03-01T00:50:20;-5.10;99.90
10911;DHT22;5508;49.150;11.030;2023-03-01T00:53:21;-5.10;99.90
10911;DHT22;5508;49.150;11.030;2023-03-01T00:56:21;-5.00;99.90
10911;DHT22;5508;49.150;11.030;2023-03-01T00:59:22;-5.00;99.90
10911;DHT22;5508;49.150;11.030;2023-03-01T01:02:23;-4.90;99.90
10911;DHT22;5508;49.150;11.030;2023-03-01T01:05:23;-4.90;99.90
10911;DHT22;5508;49.150;11.030;2023-03-01T01:08:24;-4.90;99.90
10911;DHT22;5508;49.150;11.030;2023-03-01T01:11:26;-4.90;99.90
10911;DHT22;5508;49.150;11.030;2023-03-01T01:14:27;-4.90;99.90
10911;DHT22;5508;49.150;11.030;2023-03-01T01:17:28;-4.90;99.90
10911;DHT22;5508;49.150;11.030;2023-03-01T01:20:28;-4.90;99.90
10911;DHT22;5508;49.150;11.030;2023-03-01T01:23:29;-4.80;99.90
10911;DHT22;5508;49.150;11.030;2023-03-01T01:26:32;-4.80;99.90
10911;DHT22;5508;49.150;11.030;2023-03-01T01:29:33;-4.70;99.90
10911;DHT22;5508;49.150;11.030;2023-03-01T01:32:34;-4.70;99.90
10911;DHT22;5508;49.150;11.030;2023-03-01T01:35:34;-4.70;99.90
10911;DHT22;5508;49.150;11.030;2023-03-01T01:38:36;-4.60;99.90
10911;DHT22;5508;49.150;11.030;2023-03-01T01:41:37;-4.50;99.90
10911;DHT22;5508;49.150;11.030;2023-03-01T01:44:40;-4.50;99.90
10911;DHT22;5508;49.150;11.030;2023-03-01T01:47:40;-4.40;99.90
10911;DHT22;5508;49.150;11.030;2023-03-01T01:50:41;-4.40;99.90
10911;DHT22;5508;49.150;11.030;2023-03-01T01:53:42;-4.40;99.90
10911;DHT22;5508;49.150;11.030;2023-03-01T01:56:49;-4.20;99.90
10911;DHT22;5508;49.150;11.030;2023-03-01T01:59:54;-4.30;99.90
10911;DHT22;5508;49.150;11.030;2023-03-01T02:03:07;-4.30;99.60
10911;DHT22;5508;49.150;11.030;2023-03-01T02:06:38;-4.40;99.10
10911;DHT22;5508;49.150;11.030;2023-03-01T02:09:42;-4.60;98.80
10911;DHT22;5508;49.150;11.030;2023-03-01T02:12:45;-4.70;99.90
10911;DHT22;5508;49.150;11.030;2023-03-01T02:15:46;-4.90;99.90
10911;DHT22;5508;49.150;11.030;2023-03-01T02:18:47;-5.00;99.90
10911;DHT22;5508;49.150;11.030;2023-03-01T02:22:14;-5.10;99.90
10911;DHT22;5508;49.150;11.030;2023-03-01T02:28:30;-5.20;99.90
10911;DHT22;5508;49.150;11.030;2023-03-01T02:31:31;-5.20;99.90
10911;DHT22;5508;49.150;11.030;2023-03-01T02:34:43;-5.30;99.90
10911;DHT22;5508;49.150;11.030;2023-03-01T02:37:44;-5.30;99.90
10911;DHT22;5508;49.150;11.030;2023-03-01T02:40:45;-5.40;99.90
10911;DHT22;5508;49.150;11.030;2023-03-01T02:43:46;-5.40;99.90
10911;DHT22;5508;49.150;11.030;2023-03-01T02:46:52;-5.50;99.90
10911;DHT22;5508;49.150;11.030;2023-03-01T02:49:54;-5.50;99.90
10911;DHT22;5508;49.150;11.030;2023-03-01T02:53:05;-5.60;99.90
10911;DHT22;5508;49.150;11.030;2023-03-01T02:56:09;-5.60;99.90
10911;DHT22;5508;49.150;11.030;2023-03-01T02:59:13;-5.60;99.90
10911;DHT22;5508;49.150;11.030;2023-03-01T03:02:24;-5.60;99.90
10911;DHT22;5508;49.150;11.030;2023-03-01T03:05:37;-5.70;99.90
10911;DHT22;5508;49.150;11.030;2023-03-01T03:08:38;-5.70;99.90
10911;DHT22;5508;49.150;11.030;2023-03-01T03:11:38;-5.70;99.90
10911;DHT22;5508;49.150;11.030;2023-03-01T03:14:41;-5.70;99.90
10911;DHT22;5508;49.150;11.030;2023-03-01T03:17:42;-5.90;99.90
10911;DHT22;5508;49.150;11.030;2023-03-01T03:20:43;-6.00;99.90
10911;DHT22;5508;49.150;11.030;2023-03-01T03:23:44;-6.00;99.90
10911;DHT22;5508;49.150;11.030;2023-03-01T03:26:44;-6.10;99.90
10911;DHT22;5508;49.150;11.030;2023-03-01T03:29:46;-6.10;99.90
10911;DHT22;5508;49.150;11.030;2023-03-01T03:32:47;-6.20;99.90
10911;DHT22;5508;49.150;11.030;2023-03-01T03:35:52;-6.30;99.90
10911;DHT22;5508;49.150;11.030;2023-03-01T03:38:53;-6.40;99.90
10911;DHT22;5508;49.150;11.030;2023-03-01T03:41:54;-6.40;99.90
10911;DHT22;5508;49.150;11.030;2023-03-01T03:44:54;-6.40;99.90
10911;DHT22;5508;49.150;11.030;2023-03-01T03:47:55;-6.40;99.90
10911;DHT22;5508;49.150;11.030;2023-03-01T03:50:56;-6.30;99.90
10911;DHT22;5508;49.150;11.030;2023-03-01T03:53:56;-6.30;99.90
10911;DHT22;5508;49.150;11.030;2023-03-01T03:56:57;-6.30;99.90
10911;DHT22;5508;49.150;11.030;2023-03-01T03:59:58;-6.20;99.90
10911;DHT22;5508;49.150;11.030;2023-03-01T04:02:58;-6.20;99.90
10911;DHT22;5508;49.150;11.030;2023-03-01T04:06:00;-6.30;99.90
10911;DHT22;5508;49.150;11.030;2023-03-01T04:09:01;-6.40;99.90
10911;DHT22;5508;49.150;11.030;2023-03-01T04:12:02;-6.40;99.90
10911;DHT22;5508;49.150;11.030;2023-03-01T04:15:05;-6.30;99.90
10911;DHT22;5508;49.150;11.030;2023-03-01T04:18:15;-6.30;99.90
10911;DHT22;5508;49.150;11.030;2023-03-01T04:21:16;-6.30;99.90
10911;DHT22;5508;49.150;11.030;2023-03-01T04:24:16;-6.30;99.90
10911;DHT22;5508;49.150;11.030;2023-03-01T04:27:17;-6.30;99.90
10911;DHT22;5508;49.150;11.030;2023-03-01T04:30:17;-6.40;99.90
10911;DHT22;5508;49.150;11.030;2023-03-01T04:33:18;-6.50;99.90
10911;DHT22;5508;49.150;11.030;2023-03-01T04:36:22;-6.60;99.90
10911;DHT22;5508;49.150;11.030;2023-03-01T04:39:23;-6.60;99.90
10911;DHT22;5508;49.150;11.030;2023-03-01T04:42:23;-6.60;99.90
10911;DHT22;5508;49.150;11.030;2023-03-01T04:45:24;-6.70;99.90
10911;DHT22;5508;49.150;11.030;2023-03-01T04:48:24;-6.80;99.90
10911;DHT22;5508;49.150;11.030;2023-03-01T04:51:25;-6.80;99.90
10911;DHT22;5508;49.150;11.030;2023-03-01T04:54:26;-6.80;99.90
10911;DHT22;5508;49.150;11.030;2023-03-01T04:57:26;-6.90;99.90
10911;DHT22;5508;49.150;11.030;2023-03-01T05:00:27;-6.90;99.90
10911;DHT22;5508;49.150;11.030;2023-03-01T05:03:27;-6.90;99.90
10911;DHT22;5508;49.150;11.030;2023-03-01T05:06:29;-7.00;99.90
10911;DHT22;5508;49.150;11.030;2023-03-01T05:09:29;-7.00;99.90
10911;DHT22;5508;49.150;11.030;2023-03-01T05:12:30;-6.90;99.90
10911;DHT22;5508;49.150;11.030;2023-03-01T05:15:31;-6.90;99.90
10911;DHT22;5508;49.150;11.030;2023-03-01T05:18:33;-7.00;99.90
10911;DHT22;5508;49.150;11.030;2023-03-01T05:21:35;-7.00;99.90
10911;DHT22;5508;49.150;11.030;2023-03-01T05:24:55;-7.00;99.90
10911;DHT22;5508;49.150;11.030;2023-03-01T05:27:56;-7.00;99.90
10911;DHT22;5508;49.150;11.030;2023-03-01T05:30:57;-7.10;99.90
10911;DHT22;5508;49.150;11.030;2023-03-01T05:33:58;-7.10;99.90
10911;DHT22;5508;49.150;11.030;2023-03-01T05:36:59;-7.10;99.90
10911;DHT22;5508;49.150;11.030;2023-03-01T05:39:59;-7.20;99.90
10911;DHT22;5508;49.150;11.030;2023-03-01T05:43:00;-7.20;99.90
10911;DHT22;5508;49.150;11.030;2023-03-01T05:46:02;-7.20;99.90
10911;DHT22;5508;49.150;11.030;2023-03-01T05:49:02;-7.20;99.90
10911;DHT22;5508;49.150;11.030;2023-03-01T05:52:04;-7.20;99.90
10911;DHT22;5508;49.150;11.030;2023-03-01T05:55:05;-7.20;99.90
10911;DHT22;5508;49.150;11.030;2023-03-01T05:58:11;-7.30;99.90
10911;DHT22;5508;49.150;11.030;2023-03-01T06:01:12;-7.30;99.90
10911;DHT22;5508;49.150;11.030;2023-03-01T06:04:13;-7.20;99.90
10911;DHT22;5508;49.150;11.030;2023-03-01T06:07:14;-7.10;99.90
10911;DHT22;5508;49.150;11.030;2023-03-01T06:10:15;-7.10;99.90
10911;DHT22;5508;49.150;11.030;2023-03-01T06:13:15;-7.10;99.90
10911;DHT22;5508;49.150;11.030;2023-03-01T06:16:16;-7.20;99.90
10911;DHT22;5508;49.150;11.030;2023-03-01T06:19:16;-7.20;99.90
10911;DHT22;5508;49.150;11.030;2023-03-01T06:22:17;-7.20;99.90
10911;DHT22;5508;49.150;11.030;2023-03-01T06:25:23;-7.20;99.90
10911;DHT22;5508;49.150;11.030;2023-03-01T06:28:24;-7.10;99.90
10911;DHT22;5508;49.150;11.030;2023-03-01T06:31:24;-7.00;99.90
10911;DHT22;5508;49.150;11.030;2023-03-01T06:34:25;-7.00;99.90
10911;DHT22;5508;49.150;11.030;2023-03-01T06:37:26;-6.90;99.90
10911;DHT22;5508;49.150;11.030;2023-03-01T06:40:26;-6.80;99.90
10911;DHT22;5508;49.150;11.030;2023-03-01T06:43:27;-6.70;99.90
10911;DHT22;5508;49.150;11.030;2023-03-01T06:46:28;-6.60;99.90
10911;DHT22;5508;49.150;11.030;2023-03-01T06:49:29;-6.50;99.90
10911;DHT22;5508;49.150;11.030;2023-03-01T06:52:30;-6.40;99.90
10911;DHT22;5508;49.150;11.030;2023-03-01T06:55:31;-6.30;99.90
10911;DHT22;5508;49.150;11.030;2023-03-01T06:58:32;-6.10;99.90
10911;DHT22;5508;49.150;11.030;2023-03-01T07:01:32;-6.00;99.90
10911;DHT22;5508;49.150;11.030;2023-03-01T07:04:33;-5.80;99.90
10911;DHT22;5508;49.150;11.030;2023-03-01T07:07:34;-5.60;99.90
10911;DHT22;5508;49.150;11.030;2023-03-01T07:10:35;-5.50;99.90
10911;DHT22;5508;49.150;11.030;2023-03-01T07:13:35;-5.30;99.90
10911;DHT22;5508;49.150;11.030;2023-03-01T07:16:36;-5.20;99.90
10911;DHT22;5508;49.150;11.030;2023-03-01T07:19:37;-5.10;99.90
10911;DHT22;5508;49.150;11.030;2023-03-01T07:22:40;-5.00;99.90
10911;DHT22;5508;49.150;11.030;2023-03-01T07:25:41;-4.90;99.90
10911;DHT22;5508;49.150;11.030;2023-03-01T07:28:42;-4.70;99.90
10911;DHT22;5508;49.150;11.030;2023-03-01T07:31:42;-4.60;99.90
10911;DHT22;5508;49.150;11.030;2023-03-01T07:34:43;-4.40;99.90
10911;DHT22;5508;49.150;11.030;2023-03-01T07:37:44;-4.20;99.90
10911;DHT22;5508;49.150;11.030;2023-03-01T07:40:44;-4.00;99.90
10911;DHT22;5508;49.150;11.030;2023-03-01T07:43:45;-3.90;99.90
10911;DHT22;5508;49.150;11.030;2023-03-01T07:46:46;-3.70;99.90
10911;DHT22;5508;49.150;11.030;2023-03-01T07:49:46;-3.60;99.90
10911;DHT22;5508;49.150;11.030;2023-03-01T07:52:48;-3.40;99.90
10911;DHT22;5508;49.150;11.030;2023-03-01T07:55:48;-3.20;99.50
10911;DHT22;5508;49.150;11.030;2023-03-01T07:58:49;-3.00;96.50
10911;DHT22;5508;49.150;11.030;2023-03-01T08:01:50;-2.80;95.10
10911;DHT22;5508;49.150;11.030;2023-03-01T08:04:50;-2.60;94.00
10911;DHT22;5508;49.150;11.030;2023-03-01T08:07:51;-2.50;94.60
10911;DHT22;5508;49.150;11.030;2023-03-01T08:10:51;-2.30;93.10
10911;DHT22;5508;49.150;11.030;2023-03-01T08:13:52;-2.20;94.10
10911;DHT22;5508;49.150;11.030;2023-03-01T08:16:53;-2.00;91.40
10911;DHT22;5508;49.150;11.030;2023-03-01T08:19:53;-1.70;90.00
10911;DHT22;5508;49.150;11.030;2023-03-01T08:22:54;-1.50;88.60
10911;DHT22;5508;49.150;11.030;2023-03-01T08:25:54;-1.30;87.60
10911;DHT22;5508;49.150;11.030;2023-03-01T08:28:55;-1.10;86.10
10911;DHT22;5508;49.150;11.030;2023-03-01T08:31:56;-0.90;85.50
10911;DHT22;5508;49.150;11.030;2023-03-01T08:34:57;-0.70;82.80
10911;DHT22;5508;49.150;11.030;2023-03-01T08:37:57;-0.60;80.00
10911;DHT22;5508;49.150;11.030;2023-03-01T08:41:02;-0.50;80.50
10911;DHT22;5508;49.150;11.030;2023-03-01T08:44:03;-0.20;81.50
10911;DHT22;5508;49.150;11.030;2023-03-01T08:47:04;0.00;78.30
10911;DHT22;5508;49.150;11.030;2023-03-01T08:50:05;0.30;77.90
10911;DHT22;5508;49.150;11.030;2023-03-01T08:53:06;0.50;77.20
10911;DHT22;5508;49.150;11.030;2023-03-01T08:56:07;0.70;76.40
10911;DHT22;5508;49.150;11.030;2023-03-01T08:59:12;0.90;75.10
10911;DHT22;5508;49.150;11.030;2023-03-01T09:02:15;1.00;72.90
10911;DHT22;5508;49.150;11.030;2023-03-01T09:05:16;1.00;70.70
10911;DHT22;5508;49.150;11.030;2023-03-01T09:08:18;1.20;74.40
10911;DHT22;5508;49.150;11.030;2023-03-01T09:11:20;1.30;69.20
10911;DHT22;5508;49.150;11.030;2023-03-01T09:14:21;1.50;71.40
10911;DHT22;5508;49.150;11.030;2023-03-01T09:17:22;1.60;69.20
10911;DHT22;5508;49.150;11.030;2023-03-01T09:20:22;1.70;66.70
10911;DHT22;5508;49.150;11.030;2023-03-01T09:23:23;1.80;69.70
10911;DHT22;5508;49.150;11.030;2023-03-01T09:26:24;1.80;65.90
10911;DHT22;5508;49.150;11.030;2023-03-01T09:29:25;2.10;68.50
10911;DHT22;5508;49.150;11.030;2023-03-01T09:32:26;2.30;66.20
10911;DHT22;5508;49.150;11.030;2023-03-01T09:35:26;2.60;65.30
10911;DHT22;5508;49.150;11.030;2023-03-01T09:38:28;2.70;65.20
10911;DHT22;5508;49.150;11.030;2023-03-01T09:45:06;3.20;63.00
10911;DHT22;5508;49.150;11.030;2023-03-01T09:48:20;3.30;60.70
10911;DHT22;5508;49.150;11.030;2023-03-01T09:54:29;3.40;62.40
10911;DHT22;5508;49.150;11.030;2023-03-01T10:00:42;3.70;59.00
10911;DHT22;5508;49.150;11.030;2023-03-01T10:03:49;3.90;60.10
10911;DHT22;5508;49.150;11.030;2023-03-01T10:07:20;3.90;57.10
10911;DHT22;5508;49.150;11.030;2023-03-01T10:10:33;3.70;57.10
10911;DHT22;5508;49.150;11.030;2023-03-01T10:17:05;4.00;57.60
10911;DHT22;5508;49.150;11.030;2023-03-01T10:20:21;4.30;58.20
10911;DHT22;5508;49.150;11.030;2023-03-01T10:23:27;4.50;59.50
10911;DHT22;5508;49.150;11.030;2023-03-01T10:33:13;4.80;53.80
10911;DHT22;5508;49.150;11.030;2023-03-01T10:36:14;5.00;54.90
10911;DHT22;5508;49.150;11.030;2023-03-01T10:39:18;5.10;54.60
10911;DHT22;5508;49.150;11.030;2023-03-01T10:42:31;5.10;54.70
10911;DHT22;5508;49.150;11.030;2023-03-01T10:45:38;5.10;53.40
10911;DHT22;5508;49.150;11.030;2023-03-01T10:48:39;5.20;54.90
10911;DHT22;5508;49.150;11.030;2023-03-01T10:51:41;5.30;53.00
10911;DHT22;5508;49.150;11.030;2023-03-01T10:54:56;5.30;52.40
10911;DHT22;5508;49.150;11.030;2023-03-01T11:04:17;5.20;52.50
10911;DHT22;5508;49.150;11.030;2023-03-01T11:07:18;5.60;56.20
10911;DHT22;5508;49.150;11.030;2023-03-01T11:10:30;5.80;49.90
10911;DHT22;5508;49.150;11.030;2023-03-01T11:13:31;5.70;49.40
10911;DHT22;5508;49.150;11.030;2023-03-01T11:16:37;5.80;53.70
10911;DHT22;5508;49.150;11.030;2023-03-01T11:19:38;5.90;52.20
10911;DHT22;5508;49.150;11.030;2023-03-01T11:22:49;6.20;49.70
10911;DHT22;5508;49.150;11.030;2023-03-01T11:25:59;6.30;50.10
10911;DHT22;5508;49.150;11.030;2023-03-01T11:29:04;6.10;49.00
10911;DHT22;5508;49.150;11.030;2023-03-01T11:32:08;5.90;48.70
10911;DHT22;5508;49.150;11.030;2023-03-01T11:35:27;5.90;50.20
10911;DHT22;5508;49.150;11.030;2023-03-01T11:38:29;6.10;50.10
10911;DHT22;5508;49.150;11.030;2023-03-01T11:41:34;6.60;48.70
10911;DHT22;5508;49.150;11.030;2023-03-01T11:44:37;6.40;48.70
10911;DHT22;5508;49.150;11.030;2023-03-01T11:47:55;6.30;48.40
10911;DHT22;5508;49.150;11.030;2023-03-01T11:51:02;6.40;48.60
10911;DHT22;5508;49.150;11.030;2023-03-01T11:54:13;6.50;52.10
10911;DHT22;5508;49.150;11.030;2023-03-01T12:00:45;6.50;48.50
10911;DHT22;5508;49.150;11.030;2023-03-01T12:08:07;6.50;48.80
10911;DHT22;5508;49.150;11.030;2023-03-01T12:11:29;6.50;47.00
10911;DHT22;5508;49.150;11.030;2023-03-01T12:21:35;7.10;45.90
10911;DHT22;5508;49.150;11.030;2023-03-01T12:28:22;7.00;48.40
10911;DHT22;5508;49.150;11.030;2023-03-01T12:31:41;7.10;48.20
10911;DHT22;5508;49.150;11.030;2023-03-01T12:38:42;7.30;46.10
10911;DHT22;5508;49.150;11.030;2023-03-01T12:51:35;7.50;48.40
10911;DHT22;5508;49.150;11.030;2023-03-01T12:54:36;7.40;47.00
10911;DHT22;5508;49.150;11.030;2023-03-01T12:57:55;7.30;45.50
10911;DHT22;5508;49.150;11.030;2023-03-01T13:01:21;7.30;47.10
10911;DHT22;5508;49.150;11.030;2023-03-01T13:10:52;7.20;46.80
10911;DHT22;5508;49.150;11.030;2023-03-01T13:17:40;7.60;45.50
10911;DHT22;5508;49.150;11.030;2023-03-01T13:23:47;7.50;46.00
10911;DHT22;5508;49.150;11.030;2023-03-01T13:30:48;7.50;44.70
10911;DHT22;5508;49.150;11.030;2023-03-01T13:33:49;7.50;46.40
10911;DHT22;5508;49.150;11.030;2023-03-01T13:36:49;7.60;45.60
10911;DHT22;5508;49.150;11.030;2023-03-01T13:39:50;7.50;45.50
10911;DHT22;5508;49.150;11.030;2023-03-01T13:42:55;7.60;45.30
10911;DHT22;5508;49.150;11.030;2023-03-01T13:45:57;7.70;45.60
10911;DHT22;5508;49.150;11.030;2023-03-01T13:48:59;7.80;45.60
10911;DHT22;5508;49.150;11.030;2023-03-01T13:52:01;7.70;46.80
10911;DHT22;5508;49.150;11.030;2023-03-01T13:58:27;7.80;46.00
10911;DHT22;5508;49.150;11.030;2023-03-01T14:01:30;7.80;47.80
10911;DHT22;5508;49.150;11.030;2023-03-01T14:04:33;7.70;48.20
10911;DHT22;5508;49.150;11.030;2023-03-01T14:07:36;7.70;47.70
10911;DHT22;5508;49.150;11.030;2023-03-01T14:11:07;7.70;47.00
10911;DHT22;5508;49.150;11.030;2023-03-01T14:14:29;7.80;47.30
10911;DHT22;5508;49.150;11.030;2023-03-01T14:17:52;7.70;48.30
10911;DHT22;5508;49.150;11.030;2023-03-01T14:20:54;7.90;49.60
10911;DHT22;5508;49.150;11.030;2023-03-01T14:23:55;8.00;49.20
10911;DHT22;5508;49.150;11.030;2023-03-01T14:26:56;8.10;48.70
10911;DHT22;5508;49.150;11.030;2023-03-01T14:29:59;8.00;48.30
10911;DHT22;5508;49.150;11.030;2023-03-01T14:33:03;7.90;49.00
10911;DHT22;5508;49.150;11.030;2023-03-01T14:36:13;8.00;48.20
10911;DHT22;5508;49.150;11.030;2023-03-01T14:39:19;7.80;50.40
10911;DHT22;5508;49.150;11.030;2023-03-01T14:42:22;7.80;50.30
10911;DHT22;5508;49.150;11.030;2023-03-01T14:45:25;7.60;49.50
10911;DHT22;5508;49.150;11.030;2023-03-01T14:48:27;7.60;50.50
10911;DHT22;5508;49.150;11.030;2023-03-01T14:51:28;7.50;51.20
10911;DHT22;5508;49.150;11.030;2023-03-01T14:54:50;7.60;50.10
10911;DHT22;5508;49.150;11.030;2023-03-01T14:57:52;7.60;51.70
10911;DHT22;5508;49.150;11.030;2023-03-01T15:00:58;7.60;52.20
10911;DHT22;5508;49.150;11.030;2023-03-01T15:03:59;7.60;52.20
10911;DHT22;5508;49.150;11.030;2023-03-01T15:07:01;7.70;52.00
10911;DHT22;5508;49.150;11.030;2023-03-01T15:10:06;7.80;51.50
10911;DHT22;5508;49.150;11.030;2023-03-01T15:13:21;7.60;51.90
10911;DHT22;5508;49.150;11.030;2023-03-01T15:16:33;7.50;52.40
10911;DHT22;5508;49.150;11.030;2023-03-01T15:19:34;7.50;52.60
10911;DHT22;5508;49.150;11.030;2023-03-01T15:22:35;7.40;53.30
10911;DHT22;5508;49.150;11.030;2023-03-01T15:25:36;7.20;52.10
10911;DHT22;5508;49.150;11.030;2023-03-01T15:28:43;7.10;53.20
10911;DHT22;5508;49.150;11.030;2023-03-01T15:32:25;6.90;53.60
10911;DHT22;5508;49.150;11.030;2023-03-01T15:35:42;6.80;53.20
10911;DHT22;5508;49.150;11.030;2023-03-01T15:38:54;6.60;53.90
10911;DHT22;5508;49.150;11.030;2023-03-01T15:41:55;6.40;54.60
10911;DHT22;5508;49.150;11.030;2023-03-01T15:48:17;6.40;56.10
10911;DHT22;5508;49.150;11.030;2023-03-01T15:51:26;6.20;57.60
10911;DHT22;5508;49.150;11.030;2023-03-01T15:54:28;6.20;56.10
10911;DHT22;5508;49.150;11.030;2023-03-01T15:57:29;6.20;56.40
10911;DHT22;5508;49.150;11.030;2023-03-01T16:00:30;6.20;56.50
10911;DHT22;5508;49.150;11.030;2023-03-01T16:03:30;6.10;56.60
10911;DHT22;5508;49.150;11.030;2023-03-01T16:06:32;6.00;56.80
10911;DHT22;5508;49.150;11.030;2023-03-01T16:09:32;5.80;58.50
10911;DHT22;5508;49.150;11.030;2023-03-01T16:12:33;5.80;57.90
10911;DHT22;5508;49.150;11.030;2023-03-01T16:15:34;5.70;58.30
10911;DHT22;5508;49.150;11.030;2023-03-01T16:18:36;5.60;58.50
10911;DHT22;5508;49.150;11.030;2023-03-01T16:21:37;5.40;59.90
10911;DHT22;5508;49.150;11.030;2023-03-01T16:24:37;5.30;59.40
10911;DHT22;5508;49.150;11.030;2023-03-01T16:27:38;5.20;59.80
10911;DHT22;5508;49.150;11.030;2023-03-01T16:30:46;5.10;60.40
10911;DHT22;5508;49.150;11.030;2023-03-01T16:33:49;5.00;60.80
10911;DHT22;5508;49.150;11.030;2023-03-01T16:36:50;4.90;62.80
10911;DHT22;5508;49.150;11.030;2023-03-01T16:39:52;4.80;61.90
10911;DHT22;5508;49.150;11.030;2023-03-01T16:42:54;4.70;62.70
10911;DHT22;5508;49.150;11.030;2023-03-01T16:45:59;4.60;62.40
10911;DHT22;5508;49.150;11.030;2023-03-01T16:49:00;4.50;63.10
10911;DHT22;5508;49.150;11.030;2023-03-01T16:52:00;4.40;63.40
10911;DHT22;5508;49.150;11.030;2023-03-01T16:55:03;4.30;63.80
10911;DHT22;5508;49.150;11.030;2023-03-01T16:58:04;4.20;64.00
10911;DHT22;5508;49.150;11.030;2023-03-01T17:01:11;4.20;64.00
10911;DHT22;5508;49.150;11.030;2023-03-01T17:04:12;4.10;63.90
10911;DHT22;5508;49.150;11.030;2023-03-01T17:07:13;3.90;65.80
10911;DHT22;5508;49.150;11.030;2023-03-01T17:10:14;3.90;65.50
10911;DHT22;5508;49.150;11.030;2023-03-01T17:13:15;3.80;65.90
10911;DHT22;5508;49.150;11.030;2023-03-01T17:16:18;3.60;66.40
10911;DHT22;5508;49.150;11.030;2023-03-01T17:19:19;3.50;68.40
10911;DHT22;5508;49.150;11.030;2023-03-01T17:22:20;3.30;68.70
10911;DHT22;5508;49.150;11.030;2023-03-01T17:25:20;3.20;69.40
10911;DHT22;5508;49.150;11.030;2023-03-01T17:28:22;3.10;69.70
10911;DHT22;5508;49.150;11.030;2023-03-01T17:31:23;3.00;71.00
10911;DHT22;5508;49.150;11.030;2023-03-01T17:34:24;2.90;70.50
10911;DHT22;5508;49.150;11.030;2023-03-01T17:37:25;2.90;71.10
10911;DHT22;5508;49.150;11.030;2023-03-01T17:40:25;2.80;71.20
10911;DHT22;5508;49.150;11.030;2023-03-01T17:43:26;2.70;71.60
10911;DHT22;5508;49.150;11.030;2023-03-01T17:46:27;2.70;72.70
10911;DHT22;5508;49.150;11.030;2023-03-01T17:49:29;2.70;72.10
10911;DHT22;5508;49.150;11.030;2023-03-01T17:52:30;2.50;72.20
10911;DHT22;5508;49.150;11.030;2023-03-01T17:55:31;2.60;72.10
10911;DHT22;5508;49.150;11.030;2023-03-01T17:58:31;2.60;72.00
10911;DHT22;5508;49.150;11.030;2023-03-01T18:01:32;2.50;72.30
10911;DHT22;5508;49.150;11.030;2023-03-01T18:04:35;2.40;73.00
10911;DHT22;5508;49.150;11.030;2023-03-01T18:07:36;2.40;73.40
10911;DHT22;5508;49.150;11.030;2023-03-01T18:10:36;2.20;73.70
10911;DHT22;5508;49.150;11.030;2023-03-01T18:13:37;2.20;73.70
10911;DHT22;5508;49.150;11.030;2023-03-01T18:16:39;2.10;74.10
10911;DHT22;5508;49.150;11.030;2023-03-01T18:19:40;2.00;74.70
10911;DHT22;5508;49.150;11.030;2023-03-01T18:22:41;2.00;74.70
10911;DHT22;5508;49.150;11.030;2023-03-01T18:25:41;2.10;74.70
10911;DHT22;5508;49.150;11.030;2023-03-01T18:28:42;2.00;74.60
10911;DHT22;5508;49.150;11.030;2023-03-01T18:31:46;2.00;75.20
10911;DHT22;5508;49.150;11.030;2023-03-01T18:34:47;2.00;74.70
10911;DHT22;5508;49.150;11.030;2023-03-01T18:37:47;1.90;74.90
10911;DHT22;5508;49.150;11.030;2023-03-01T18:40:51;1.80;75.10
10911;DHT22;5508;49.150;11.030;2023-03-01T18:43:52;1.80;75.50
10911;DHT22;5508;49.150;11.030;2023-03-01T18:46:54;1.60;76.00
10911;DHT22;5508;49.150;11.030;2023-03-01T18:49:57;1.40;76.60
10911;DHT22;5508;49.150;11.030;2023-03-01T18:52:58;1.10;77.80
10911;DHT22;5508;49.150;11.030;2023-03-01T18:55:59;0.90;79.60
10911;DHT22;5508;49.150;11.030;2023-03-01T18:59:01;0.60;80.40
10911;DHT22;5508;49.150;11.030;2023-03-01T19:02:03;0.30;81.00
10911;DHT22;5508;49.150;11.030;2023-03-01T19:05:04;0.10;81.50
10911;DHT22;5508;49.150;11.030;2023-03-01T19:08:04;-0.10;82.60
10911;DHT22;5508;49.150;11.030;2023-03-01T19:11:05;-0.30;83.80
10911;DHT22;5508;49.150;11.030;2023-03-01T19:14:06;-0.40;83.60
10911;DHT22;5508;49.150;11.030;2023-03-01T19:17:08;-0.50;85.10
10911;DHT22;5508;49.150;11.030;2023-03-01T19:20:09;-0.60;86.10
10911;DHT22;5508;49.150;11.030;2023-03-01T19:23:10;-0.70;86.50
10911;DHT22;5508;49.150;11.030;2023-03-01T19:26:13;-0.70;87.90
10911;DHT22;5508;49.150;11.030;2023-03-01T19:29:13;-0.70;87.80
10911;DHT22;5508;49.150;11.030;2023-03-01T19:32:14;-0.70;86.90
10911;DHT22;5508;49.150;11.030;2023-03-01T19:35:15;-0.90;87.40
10911;DHT22;5508;49.150;11.030;2023-03-01T19:38:15;-1.00;87.70
10911;DHT22;5508;49.150;11.030;2023-03-01T19:41:16;-1.00;87.80
10911;DHT22;5508;49.150;11.030;2023-03-01T19:44:17;-1.00;88.60
10911;DHT22;5508;49.150;11.030;2023-03-01T19:47:18;-1.00;88.80
10911;DHT22;5508;49.150;11.030;2023-03-01T19:50:19;-1.10;88.90
10911;DHT22;5508;49.150;11.030;2023-03-01T19:53:20;-1.20;89.40
10911;DHT22;5508;49.150;11.030;2023-03-01T19:56:21;-1.30;89.90
10911;DHT22;5508;49.150;11.030;2023-03-01T19:59:21;-1.30;89.90
10911;DHT22;5508;49.150;11.030;2023-03-01T20:02:24;-1.30;89.90
10911;DHT22;5508;49.150;11.030;2023-03-01T20:05:25;-1.40;91.30
10911;DHT22;5508;49.150;11.030;2023-03-01T20:08:25;-1.40;90.30
10911;DHT22;5508;49.150;11.030;2023-03-01T20:11:26;-1.50;91.10
10911;DHT22;5508;49.150;11.030;2023-03-01T20:14:27;-1.50;91.50
10911;DHT22;5508;49.150;11.030;2023-03-01T20:17:27;-1.60;92.30
10911;DHT22;5508;49.150;11.030;2023-03-01T20:20:28;-1.60;92.90
10911;DHT22;5508;49.150;11.030;2023-03-01T20:23:28;-1.60;92.40
10911;DHT22;5508;49.150;11.030;2023-03-01T20:26:29;-1.70;91.60
10911;DHT22;5508;49.150;11.030;2023-03-01T20:29:31;-1.80;92.00
10911;DHT22;5508;49.150;11.030;2023-03-01T20:32:32;-1.90;92.40
10911;DHT22;5508;49.150;11.030;2023-03-01T20:35:33;-1.90;92.50
10911;DHT22;5508;49.150;11.030;2023-03-01T20:38:37;-1.90;92.80
10911;DHT22;5508;49.150;11.030;2023-03-01T20:41:38;-2.00;92.70
10911;DHT22;5508;49.150;11.030;2023-03-01T20:44:39;-2.20;92.50
10911;DHT22;5508;49.150;11.030;2023-03-01T20:47:43;-2.00;93.50
10911;DHT22;5508;49.150;11.030;2023-03-01T20:50:44;-2.10;93.30
10911;DHT22;5508;49.150;11.030;2023-03-01T20:53:44;-2.10;93.60